createdAt,value
2023-12-18T00:00:42.861Z,1.17
2023-12-18T00:03:51.210Z,2.63
2023-12-18T00:06:57.798Z,2.61
2023-12-18T00:10:04.512Z,2.26
2023-12-18T00:13:11.303Z,1.93
2023-12-18T00:16:17.831Z,1.26
2023-12-18T00:19:26.050Z,1.30
2023-12-18T00:22:32.969Z,1.13
2023-12-18T00:25:39.671Z,1.38
2023-12-18T00:28:46.520Z,0.48
2023-12-18T00:31:53.232Z,1.80
2023-12-18T00:35:01.420Z,2.30
2023-12-18T00:38:07.996Z,1.26
2023-12-18T00:41:14.934Z,1.97
2023-12-18T00:44:21.768Z,1.75
2023-12-18T00:47:28.080Z,1.47
2023-12-18T00:50:35.989Z,1.69
2023-12-18T00:53:42.734Z,1.89
2023-12-18T00:56:49.497Z,2.51
2023-12-18T00:59:55.938Z,1.35
2023-12-18T01:03:02.256Z,1.36
2023-12-18T01:06:10.429Z,1.81
2023-12-18T01:09:16.772Z,2.18
2023-12-18T01:12:23.207Z,0.87
2023-12-18T01:15:30.030Z,0.68
2023-12-18T01:18:36.869Z,0.61
2023-12-18T01:21:45.310Z,1.22
2023-12-18T01:24:52.000Z,1.10
2023-12-18T01:27:58.466Z,1.90
2023-12-18T01:31:05.370Z,1.65
2023-12-18T01:34:12.383Z,0.78
2023-12-18T01:37:20.829Z,0.91
2023-12-18T01:40:27.756Z,1.41
2023-12-18T01:43:34.443Z,1.25
2023-12-18T01:46:41.787Z,0.45
2023-12-18T01:49:50.448Z,0.26
2023-12-18T01:52:58.716Z,0.11
2023-12-18T01:56:07.015Z,1.63
2023-12-18T01:59:16.212Z,1.67
2023-12-18T02:02:23.364Z,1.48
2023-12-18T02:05:29.788Z,1.52
2023-12-18T02:08:38.220Z,2.47
2023-12-18T02:11:46.551Z,2.62
2023-12-18T02:14:54.252Z,1.45
2023-12-18T02:18:00.713Z,2.19
2023-12-18T02:21:07.439Z,2.06
2023-12-18T02:24:15.488Z,2.13
2023-12-18T02:27:22.759Z,1.83
2023-12-18T02:30:29.414Z,1.74
2023-12-18T02:33:36.258Z,1.32
2023-12-18T02:36:43.286Z,1.25
2023-12-18T02:39:51.360Z,1.60
2023-12-18T02:42:58.453Z,0.58
2023-12-18T02:46:05.654Z,1.41
2023-12-18T02:49:12.574Z,2.08
2023-12-18T02:52:19.333Z,2.03
2023-12-18T02:55:27.195Z,2.13
2023-12-18T02:58:33.616Z,0.06
2023-12-18T03:01:40.382Z,1.22
2023-12-18T03:04:47.366Z,1.70
2023-12-18T03:07:54.240Z,-0.19
2023-12-18T03:11:02.196Z,0.42
2023-12-18T03:14:08.718Z,1.01
2023-12-18T03:17:15.579Z,1.82
2023-12-18T03:20:22.983Z,1.98
2023-12-18T03:23:30.145Z,0.85
2023-12-18T03:26:38.553Z,1.21
2023-12-18T03:29:45.047Z,0.01
2023-12-18T03:32:51.705Z,1.51
2023-12-18T03:35:58.416Z,2.05
2023-12-18T03:39:05.631Z,1.73
2023-12-18T03:42:14.203Z,2.22
2023-12-18T03:45:21.102Z,1.70
2023-12-18T03:48:28.690Z,2.09
2023-12-18T03:51:35.388Z,1.40
2023-12-18T03:54:42.197Z,1.50
2023-12-18T03:57:50.296Z,1.63
2023-12-18T04:00:57.099Z,2.21
2023-12-18T04:04:04.808Z,1.94
2023-12-18T04:07:11.285Z,1.88
2023-12-18T04:10:17.800Z,1.11
2023-12-18T04:13:25.974Z,0.53
2023-12-18T04:16:33.161Z,0.40
2023-12-18T04:19:39.881Z,1.73
2023-12-18T04:22:46.316Z,1.81
2023-12-18T04:25:52.767Z,1.83
2023-12-18T04:29:00.918Z,2.51
2023-12-18T04:32:07.704Z,1.86
2023-12-18T04:35:14.392Z,1.86
2023-12-18T04:38:21.161Z,1.24
2023-12-18T04:41:27.617Z,0.68
2023-12-18T04:44:35.429Z,1.65
2023-12-18T04:47:42.617Z,1.11
2023-12-18T04:50:49.541Z,0.99
2023-12-18T04:53:56.161Z,0.13
2023-12-18T04:57:02.482Z,0.04
2023-12-18T05:00:11.479Z,1.38
2023-12-18T05:03:18.764Z,0.95
2023-12-18T05:06:28.241Z,0.42
2023-12-18T05:09:34.864Z,-0.05
2023-12-18T05:12:41.755Z,-0.52
2023-12-18T05:15:52.862Z,-0.65
2023-12-18T05:18:59.713Z,0.07
2023-12-18T05:22:06.178Z,0.41
2023-12-18T05:25:13.777Z,-0.49
2023-12-18T05:28:21.243Z,0.14
2023-12-18T05:31:29.616Z,1.72
2023-12-18T05:34:36.409Z,1.32
2023-12-18T05:37:43.590Z,1.06
2023-12-18T05:40:50.376Z,1.36
2023-12-18T05:43:56.940Z,1.98
2023-12-18T05:47:05.025Z,2.29
2023-12-18T05:50:11.776Z,1.80
2023-12-18T05:53:18.573Z,0.49
2023-12-18T05:56:25.285Z,0.90
2023-12-18T05:59:32.193Z,-0.31
2023-12-18T06:02:40.921Z,1.99
2023-12-18T06:05:48.298Z,0.46
2023-12-18T06:08:55.557Z,1.06
2023-12-18T06:12:02.262Z,0.76
2023-12-18T06:15:10.587Z,2.06
2023-12-18T06:18:19.161Z,2.24
2023-12-18T06:21:26.115Z,1.17
2023-12-18T06:24:32.957Z,1.84
2023-12-18T06:27:39.537Z,2.05
2023-12-18T06:30:46.561Z,1.28
2023-12-18T06:33:55.117Z,2.78
2023-12-18T06:37:01.838Z,2.33
2023-12-18T06:40:09.813Z,2.53
2023-12-18T06:43:16.427Z,2.82
2023-12-18T06:46:23.453Z,2.85
2023-12-18T06:49:31.767Z,3.19
2023-12-18T06:52:39.491Z,3.12
2023-12-18T06:55:46.319Z,1.86
2023-12-18T06:58:53.016Z,2.97
2023-12-18T07:01:59.899Z,2.95
2023-12-18T07:05:08.520Z,1.39
2023-12-18T07:08:15.094Z,2.03
2023-12-18T07:11:21.985Z,2.68
2023-12-18T07:14:28.499Z,4.22
2023-12-18T07:17:35.345Z,1.39
2023-12-18T07:20:44.972Z,2.73
2023-12-18T07:23:51.899Z,4.32
2023-12-18T07:26:58.632Z,4.32
2023-12-18T07:30:06.038Z,3.64
2023-12-18T07:33:12.872Z,4.12
2023-12-18T07:36:20.975Z,3.65
2023-12-18T07:39:28.076Z,3.70
2023-12-18T07:42:34.719Z,4.98
2023-12-18T07:45:41.428Z,4.78
2023-12-18T07:48:50.068Z,5.07
2023-12-18T07:51:58.633Z,4.64
2023-12-18T07:55:05.968Z,4.55
2023-12-18T07:58:12.863Z,5.41
2023-12-18T08:01:21.346Z,5.38
2023-12-18T08:04:28.560Z,5.35
2023-12-18T08:07:36.704Z,4.76
2023-12-18T08:10:44.291Z,4.27
2023-12-18T08:13:50.921Z,5.02
2023-12-18T08:16:57.461Z,6.29
2023-12-18T08:20:04.019Z,4.44
2023-12-18T08:23:12.341Z,6.77
2023-12-18T08:26:19.317Z,6.33
2023-12-18T08:29:26.849Z,5.98
2023-12-18T08:32:33.403Z,6.80
2023-12-18T08:35:40.301Z,6.06
2023-12-18T08:38:48.545Z,6.85
2023-12-18T08:41:55.229Z,6.16
2023-12-18T08:45:01.764Z,7.39
2023-12-18T08:48:09.743Z,7.13
2023-12-18T08:51:18.070Z,7.13
2023-12-18T08:54:26.250Z,5.72
2023-12-18T08:57:32.874Z,7.62
2023-12-18T09:00:39.779Z,7.72
2023-12-18T09:03:46.730Z,7.04
2023-12-18T09:06:53.218Z,7.45
2023-12-18T09:10:01.020Z,9.08
2023-12-18T09:13:07.527Z,7.66
2023-12-18T09:16:14.284Z,8.25
2023-12-18T09:19:20.589Z,8.94
2023-12-18T09:22:27.302Z,8.22
2023-12-18T09:25:35.224Z,8.50
2023-12-18T09:28:41.910Z,8.12
2023-12-18T09:31:49.047Z,8.10
2023-12-18T09:34:55.710Z,8.37
2023-12-18T09:38:02.732Z,7.55
2023-12-18T09:41:10.889Z,8.15
2023-12-18T09:44:17.903Z,8.42
2023-12-18T09:47:24.779Z,8.38
2023-12-18T09:50:31.639Z,9.82
2023-12-18T09:53:38.185Z,8.73
2023-12-18T09:56:49.600Z,9.35
2023-12-18T09:59:56.228Z,9.48
2023-12-18T10:03:03.369Z,9.10
2023-12-18T10:06:10.993Z,9.58
2023-12-18T10:09:18.436Z,9.12
2023-12-18T10:12:26.836Z,10.47
2023-12-18T10:15:35.037Z,10.10
2023-12-18T10:18:42.265Z,10.39
2023-12-18T10:21:50.652Z,11.03
2023-12-18T10:25:00.140Z,10.39
2023-12-18T10:28:08.784Z,11.48
2023-12-18T10:31:15.422Z,10.82
2023-12-18T10:34:23.796Z,10.38
2023-12-18T10:37:33.174Z,11.34
2023-12-18T10:40:40.575Z,11.51
2023-12-18T10:43:50.540Z,12.25
2023-12-18T10:46:59.617Z,9.76
2023-12-18T10:50:07.667Z,12.59
2023-12-18T10:53:18.548Z,12.01
2023-12-18T10:56:26.385Z,10.64
2023-12-18T10:59:36.669Z,11.74
2023-12-18T11:02:45.382Z,11.44
2023-12-18T11:05:53.729Z,10.98
2023-12-18T11:09:00.545Z,11.42
2023-12-18T11:12:08.360Z,12.06
2023-12-18T11:15:30.751Z,11.66
2023-12-18T11:18:52.025Z,11.98
2023-12-18T11:21:58.534Z,11.34
2023-12-18T11:25:06.746Z,11.36
2023-12-18T11:28:13.353Z,12.00
2023-12-18T11:31:22.367Z,12.39
2023-12-18T11:34:29.354Z,12.68
2023-12-18T11:37:43.997Z,13.21
2023-12-18T11:40:51.653Z,12.24
2023-12-18T11:43:58.832Z,12.43
2023-12-18T11:47:08.965Z,11.93
2023-12-18T11:50:16.042Z,11.23
2023-12-18T11:53:35.191Z,12.36
2023-12-18T11:56:43.986Z,12.44
2023-12-18T11:59:50.738Z,12.04
2023-12-18T12:03:00.284Z,12.21
2023-12-18T12:06:08.929Z,12.89
2023-12-18T12:09:15.855Z,12.50
2023-12-18T12:12:22.760Z,11.86
2023-12-18T12:15:29.818Z,12.81
2023-12-18T12:18:47.125Z,12.88
2023-12-18T12:21:53.622Z,12.49
2023-12-18T12:25:00.870Z,13.07
2023-12-18T12:28:07.549Z,12.58
2023-12-18T12:31:14.091Z,12.61
2023-12-18T12:34:22.332Z,13.52
2023-12-18T12:37:29.193Z,14.21
2023-12-18T12:40:40.238Z,13.04
2023-12-18T12:43:47.036Z,12.27
2023-12-18T12:46:53.900Z,13.44
2023-12-18T12:50:06.391Z,13.12
2023-12-18T12:53:13.212Z,13.89
2023-12-18T12:56:20.118Z,14.13
2023-12-18T12:59:27.000Z,13.74
2023-12-18T13:02:34.111Z,13.87
2023-12-18T13:05:43.414Z,14.21
2023-12-18T13:08:50.803Z,13.33
2023-12-18T13:11:57.391Z,13.91
2023-12-18T13:15:05.398Z,13.62
2023-12-18T13:18:12.619Z,12.54
2023-12-18T13:21:21.306Z,14.52
2023-12-18T13:24:28.322Z,13.47
2023-12-18T13:27:35.376Z,14.27
2023-12-18T13:30:41.905Z,14.33
2023-12-18T13:33:48.928Z,13.85
2023-12-18T13:36:57.506Z,13.48
2023-12-18T13:40:04.879Z,13.97
2023-12-18T13:43:11.471Z,12.87
2023-12-18T13:46:18.697Z,12.56
2023-12-18T13:49:25.824Z,12.76
2023-12-18T13:52:33.943Z,13.18
2023-12-18T13:55:40.435Z,12.28
2023-12-18T13:58:47.333Z,11.90
2023-12-18T14:01:54.031Z,11.87
2023-12-18T14:05:02.667Z,11.54
2023-12-18T14:08:10.931Z,11.90
2023-12-18T14:11:17.869Z,11.01
2023-12-18T14:14:24.280Z,11.68
2023-12-18T14:17:30.770Z,10.72
2023-12-18T14:20:37.610Z,11.28
2023-12-18T14:23:45.665Z,11.80
2023-12-18T14:26:52.262Z,12.00
2023-12-18T14:29:58.728Z,11.32
2023-12-18T14:33:05.881Z,11.97
2023-12-18T14:36:12.899Z,10.88
2023-12-18T14:39:21.100Z,11.87
2023-12-18T14:42:27.515Z,10.70
2023-12-18T14:45:34.073Z,11.13
2023-12-18T14:48:40.917Z,10.36
2023-12-18T14:51:47.602Z,9.57
2023-12-18T14:54:56.128Z,8.68
2023-12-18T14:58:04.802Z,8.62
2023-12-18T15:01:11.404Z,8.35
2023-12-18T15:04:26.353Z,8.13
2023-12-18T15:07:35.858Z,9.36
2023-12-18T15:10:43.962Z,9.90
2023-12-18T15:13:51.162Z,9.55
2023-12-18T15:17:02.014Z,9.80
2023-12-18T15:20:11.409Z,9.71
2023-12-18T15:23:18.368Z,10.78
2023-12-18T15:26:26.742Z,10.48
2023-12-18T15:29:33.308Z,9.77
2023-12-18T15:32:42.951Z,9.13
2023-12-18T15:35:50.105Z,8.97
2023-12-18T15:38:57.934Z,8.66
2023-12-18T15:42:06.286Z,9.52
2023-12-18T15:45:13.602Z,8.86
2023-12-18T15:48:20.657Z,8.76
2023-12-18T15:51:27.768Z,8.73
2023-12-18T15:54:34.466Z,9.34
2023-12-18T15:57:42.664Z,9.23
2023-12-18T16:00:49.575Z,8.42
2023-12-18T16:03:57.527Z,9.30
2023-12-18T16:07:06.005Z,8.03
2023-12-18T16:10:12.813Z,8.28
2023-12-18T16:13:20.784Z,8.98
2023-12-18T16:16:27.226Z,8.36
2023-12-18T16:19:34.874Z,9.95
2023-12-18T16:22:41.910Z,8.64
2023-12-18T16:25:48.882Z,10.07
2023-12-18T16:28:57.220Z,8.98
2023-12-18T16:32:08.073Z,8.22
2023-12-18T16:35:14.805Z,8.79
2023-12-18T16:38:21.833Z,8.42
2023-12-18T16:41:32.486Z,9.48
2023-12-18T16:44:40.839Z,9.55
2023-12-18T16:47:47.713Z,9.21
2023-12-18T16:50:55.744Z,9.62
2023-12-18T16:54:02.304Z,8.52
2023-12-18T16:57:08.516Z,7.47
2023-12-18T17:00:17.197Z,8.09
2023-12-18T17:03:24.084Z,8.22
2023-12-18T17:06:30.847Z,8.92
2023-12-18T17:09:37.266Z,8.93
2023-12-18T17:12:44.709Z,8.15
2023-12-18T17:15:52.890Z,8.37
2023-12-18T17:18:59.595Z,7.79
2023-12-18T17:22:06.732Z,8.45
2023-12-18T17:25:12.925Z,7.98
2023-12-18T17:28:19.711Z,7.39
2023-12-18T17:31:31.528Z,7.36
2023-12-18T17:34:39.260Z,8.49
2023-12-18T17:37:46.046Z,8.12
2023-12-18T17:40:53.031Z,7.22
2023-12-18T17:44:00.016Z,8.06
2023-12-18T17:47:08.094Z,8.68
2023-12-18T17:50:14.808Z,7.73
2023-12-18T17:53:23.026Z,8.19
2023-12-18T17:56:29.589Z,8.04
2023-12-18T17:59:36.019Z,8.33
2023-12-18T18:02:44.148Z,8.03
2023-12-18T18:05:51.088Z,7.01
2023-12-18T18:08:58.107Z,7.05
2023-12-18T18:12:05.606Z,6.65
2023-12-18T18:15:12.258Z,6.49
2023-12-18T18:18:21.327Z,6.69
2023-12-18T18:21:28.368Z,6.34
2023-12-18T18:24:34.915Z,6.96
2023-12-18T18:27:41.969Z,7.58
2023-12-18T18:30:50.460Z,7.83
2023-12-18T18:34:01.397Z,8.03
2023-12-18T18:37:07.993Z,8.30
2023-12-18T18:40:15.162Z,8.27
2023-12-18T18:43:21.967Z,7.50
2023-12-18T18:46:29.316Z,7.44
2023-12-18T18:49:37.126Z,6.96
2023-12-18T18:52:43.952Z,7.55
2023-12-18T18:55:50.653Z,6.29
2023-12-18T18:58:57.596Z,5.83
2023-12-18T19:02:04.257Z,6.02
2023-12-18T19:05:12.752Z,5.83
2023-12-18T19:08:22.011Z,7.26
2023-12-18T19:11:28.498Z,7.50
2023-12-18T19:14:34.673Z,7.38
2023-12-18T19:17:43.663Z,7.63
2023-12-18T19:20:54.163Z,8.04
2023-12-18T19:24:00.495Z,7.85
2023-12-18T19:27:07.074Z,7.50
2023-12-18T19:30:14.919Z,6.03
2023-12-18T19:33:21.954Z,5.69
2023-12-18T19:36:30.539Z,6.23
2023-12-18T19:39:37.110Z,6.40
2023-12-18T19:42:44.010Z,6.71
2023-12-18T19:45:50.656Z,7.46
2023-12-18T19:48:56.984Z,7.64
2023-12-18T19:52:06.054Z,7.14
2023-12-18T19:55:12.912Z,6.29
2023-12-18T19:58:19.822Z,6.76
2023-12-18T20:01:26.202Z,6.20
2023-12-18T20:04:33.029Z,6.14
2023-12-18T20:07:41.573Z,6.08
2023-12-18T20:10:48.766Z,6.24
2023-12-18T20:13:55.431Z,6.16
2023-12-18T20:17:02.212Z,6.31
2023-12-18T20:20:09.814Z,6.50
2023-12-18T20:23:18.051Z,6.27
2023-12-18T20:26:24.477Z,6.82
2023-12-18T20:29:33.869Z,6.51
2023-12-18T20:32:42.329Z,6.70
2023-12-18T20:35:48.957Z,5.99
2023-12-18T20:38:56.935Z,6.79
2023-12-18T20:42:03.441Z,6.78
2023-12-18T20:45:10.285Z,6.84
2023-12-18T20:51:26.486Z,6.29
2023-12-18T20:54:34.483Z,6.96
2023-12-18T20:57:41.797Z,6.81
2023-12-18T21:00:48.699Z,6.17
2023-12-18T21:03:55.785Z,6.01
2023-12-18T21:07:02.464Z,6.45
2023-12-18T21:10:13.336Z,7.00
2023-12-18T21:13:20.204Z,6.51
2023-12-18T21:16:26.967Z,6.88
2023-12-18T21:19:33.364Z,6.34
2023-12-18T21:22:40.334Z,6.63
2023-12-18T21:25:48.818Z,7.01
2023-12-18T21:28:55.392Z,6.20
2023-12-18T21:32:01.767Z,5.35
2023-12-18T21:35:10.437Z,5.62
2023-12-18T21:38:16.967Z,6.88
2023-12-18T21:41:25.277Z,5.66
2023-12-18T21:44:32.308Z,4.94
2023-12-18T21:47:40.755Z,5.11
2023-12-18T21:50:47.604Z,4.60
2023-12-18T21:53:54.094Z,5.68
2023-12-18T21:57:01.756Z,6.05
2023-12-18T22:00:09.761Z,6.57
2023-12-18T22:03:18.577Z,6.48
2023-12-18T22:06:25.125Z,6.87
2023-12-18T22:09:31.767Z,6.56
2023-12-18T22:12:39.900Z,6.87
2023-12-18T22:15:46.620Z,6.24
2023-12-18T22:18:53.336Z,5.46
2023-12-18T22:22:01.054Z,6.91
2023-12-18T22:25:08.841Z,7.40
2023-12-18T22:28:17.344Z,6.24
2023-12-18T22:31:23.930Z,6.52
2023-12-18T22:34:32.190Z,6.18
2023-12-18T22:37:38.873Z,4.32
2023-12-18T22:40:45.281Z,5.72
2023-12-18T22:43:53.581Z,5.27
2023-12-18T22:46:59.833Z,6.03
2023-12-18T22:50:07.514Z,5.38
2023-12-18T22:53:17.548Z,6.71
2023-12-18T22:56:26.417Z,6.19
2023-12-18T22:59:34.453Z,6.86
2023-12-18T23:02:40.960Z,6.76
2023-12-18T23:05:47.896Z,6.28
2023-12-18T23:08:54.212Z,6.68
2023-12-18T23:12:00.864Z,5.08
2023-12-18T23:15:11.035Z,7.14
2023-12-18T23:18:18.155Z,6.69
2023-12-18T23:21:24.540Z,6.95
2023-12-18T23:24:30.986Z,6.10
2023-12-18T23:27:37.241Z,6.78
2023-12-18T23:30:45.548Z,7.59
2023-12-18T23:33:52.647Z,5.89
2023-12-18T23:36:59.238Z,6.60
2023-12-18T23:40:06.558Z,7.18
2023-12-18T23:43:14.655Z,6.75
2023-12-18T23:46:22.960Z,7.32
2023-12-18T23:49:29.499Z,7.43
2023-12-18T23:52:36.147Z,7.14
2023-12-18T23:55:43.357Z,7.04
2023-12-18T23:58:50.036Z,6.04
